Map

Track Data

SID SEASON NUMBER BASIN SUBBASIN NAME ISO_TIME NATURE LAT LON WMO_WIND WMO_PRES WMO_AGENCY TRACK_TYPE DIST2LAND LANDFALL IFLAG USA_AGENCY USA_ATCF_ID USA_LAT USA_LON USA_RECORD USA_STATUS USA_WIND USA_PRES USA_SSHS USA_R34_NE USA_R34_SE USA_R34_SW USA_R34_NW USA_R50_NE USA_R50_SE USA_R50_SW USA_R50_NW USA_R64_NE USA_R64_SE USA_R64_SW USA_R64_NW USA_POCI USA_ROCI USA_RMW USA_EYE TOKYO_LAT TOKYO_LON TOKYO_GRADE TOKYO_WIND TOKYO_PRES TOKYO_R50_DIR TOKYO_R50_LONG TOKYO_R50_SHORT TOKYO_R30_DIR TOKYO_R30_LONG TOKYO_R30_SHORT TOKYO_LAND CMA_LAT CMA_LON CMA_CAT CMA_WIND CMA_PRES HKO_LAT HKO_LON HKO_CAT HKO_WIND HKO_PRES NEWDELHI_LAT NEWDELHI_LON NEWDELHI_GRADE NEWDELHI_WIND NEWDELHI_PRES NEWDELHI_CI NEWDELHI_DP NEWDELHI_POCI REUNION_LAT REUNION_LON REUNION_TYPE REUNION_WIND REUNION_PRES REUNION_TNUM REUNION_CI REUNION_RMW REUNION_R34_NE REUNION_R34_SE REUNION_R34_SW REUNION_R34_NW REUNION_R50_NE REUNION_R50_SE REUNION_R50_SW REUNION_R50_NW REUNION_R64_NE REUNION_R64_SE REUNION_R64_SW REUNION_R64_NW BOM_LAT BOM_LON BOM_TYPE BOM_WIND BOM_PRES BOM_TNUM BOM_CI BOM_RMW BOM_R34_NE BOM_R34_SE BOM_R34_SW BOM_R34_NW BOM_R50_NE BOM_R50_SE BOM_R50_SW BOM_R50_NW BOM_R64_NE BOM_R64_SE BOM_R64_SW BOM_R64_NW BOM_ROCI BOM_POCI BOM_EYE BOM_POS_METHOD BOM_PRES_METHOD NADI_LAT NADI_LON NADI_CAT NADI_WIND NADI_PRES WELLINGTON_LAT WELLINGTON_LON WELLINGTON_WIND WELLINGTON_PRES DS824_LAT DS824_LON DS824_STAGE DS824_WIND DS824_PRES TD9636_LAT TD9636_LON TD9636_STAGE TD9636_WIND TD9636_PRES TD9635_LAT TD9635_LON TD9635_WIND TD9635_PRES TD9635_ROCI NEUMANN_LAT NEUMANN_LON NEUMANN_CLASS NEUMANN_WIND NEUMANN_PRES MLC_LAT MLC_LON MLC_CLASS MLC_WIND MLC_PRES USA_GUST BOM_GUST BOM_GUST_PER REUNION_GUST REUNION_GUST_PER USA_SEAHGT USA_SEARAD_NE USA_SEARAD_SE USA_SEARAD_SW USA_SEARAD_NW STORM_SPEED STORM_DIR
1980355S10117 1981 111 SI WA EDNA 1980-12-20 00:00:00 TS -10.1000 117.400 20 1005 bom main 116 89 ______O__O__O_ -1 -10.1000 117.400 20 20 1005 1.00000 -10.1000 117.400 TC 20 1005 -10.1000 117.400 TC 20 1005 12 290
1980355S10117 1981 111 SI WA EDNA 1980-12-20 03:00:00 TS -9.89767 116.840 main 92 85 ______P__P__P_ -1 -9.89767 116.840 20 20 1005 -9.89767 116.840 TC 20 1005 -9.89767 116.840 TC 20 1005 11 285
1980355S10117 1981 111 SI WA EDNA 1980-12-20 06:00:00 TS -9.80000 116.300 20 1005 bom main 90 90 ______O__O__O_ -1 -9.80000 116.300 20 20 1005 1.00000 -9.80000 116.300 TC 20 1005 -9.80000 116.300 TC 20 1005 10 271
1980355S10117 1981 111 SI WA EDNA 1980-12-20 09:00:00 TS -9.88250 115.818 main 114 114 ______P__P__P_ -1 -9.88250 115.818 20 20 1004 -9.88250 115.818 TC 20 1004 -9.88250 115.818 TC 20 1004 8 249
1980355S10117 1981 111 SI WA EDNA 1980-12-20 12:00:00 TS -10.1000 115.500 20 1004 bom main 145 145 ______O__O__O_ -1 -10.1000 115.500 20 20 1004 1.00000 -10.1000 115.500 TC 20 1004 -10.1000 115.500 TC 20 1004 6 215
1980355S10117 1981 111 SI WA EDNA 1980-12-20 15:00:00 TS -10.3999 115.455 main 176 176 ______P__P__P_ -1 -10.3999 115.455 20 22 1004 -10.3999 115.455 TC 20 1004 -10.3999 115.455 TC 20 1004 6 179
1980355S10117 1981 111 SI WA EDNA 1980-12-20 18:00:00 TS -10.7000 115.500 25 1004 bom main 208 208 ______O__O__O_ -1 -10.7000 115.500 20 25 1004 1.00000 -10.7000 115.500 TC 20 1004 -10.7000 115.500 TC 20 1004 5 183
1980355S10117 1981 111 SI WA EDNA 1980-12-20 21:00:00 TS -10.8950 115.430 main 233 233 ______P__P__P_ -1 -10.8950 115.430 20 25 1004 -10.8950 115.430 TC 20 1004 -10.8950 115.430 TC 20 1004 4 213
1980355S10117 1981 111 SI WA EDNA 1980-12-21 00:00:00 TS -11.0000 115.300 25 1004 bom main 246 246 ______O__O__O_ -1 -11.0000 115.300 20 25 1004 1.50000 -11.0000 115.300 TC 20 1004 -11.0000 115.300 TC 20 1004 3 247
1980355S10117 1981 111 SI WA EDNA 1980-12-21 03:00:00 TS -11.0225 115.122 main 246 246 ______P__P__P_ -1 -11.0225 115.122 20 25 1004 -11.0225 115.122 TC 20 1004 -11.0225 115.122 TC 20 1004 4 270
1980355S10117 1981 111 SI WA EDNA 1980-12-21 06:00:00 TS -11.0000 114.900 25 1004 bom main 247 246 ______O__O__O_ -1 -11.0000 114.900 20 25 1004 1.50000 -11.0000 114.900 TC 20 1004 -11.0000 114.900 TC 20 1004 5 275
1980355S10117 1981 111 SI WA EDNA 1980-12-21 09:00:00 TS -10.9850 114.650 main 246 246 ______P__P__P_ -1 -10.9850 114.650 20 25 1004 -10.9850 114.650 TC 20 1004 -10.9850 114.650 TC 20 1004 5 270
1980355S10117 1981 111 SI WA EDNA 1980-12-21 12:00:00 TS -11.0000 114.400 25 1004 bom main 247 247 ______O__O__O_ -1 -11.0000 114.400 20 25 1004 1.50000 -11.0000 114.400 TC 20 1004 -11.0000 114.400 TC 20 1004 4 260
1980355S10117 1981 111 SI WA EDNA 1980-12-21 15:00:00 TS -11.0624 114.207 main 261 261 ______P__P__P_ -1 -11.0624 114.207 20 25 1003 -11.0624 114.207 TC 22 1003 -11.0624 114.207 TC 22 1003 4 243
1980355S10117 1981 111 SI WA EDNA 1980-12-21 18:00:00 TS -11.2000 114.000 25 1003 bom main 276 276 ______O__O__O_ -1 -11.2000 114.000 20 25 1003 1.50000 -11.2000 114.000 TC 25 1003 -11.2000 114.000 TC 25 1003 6 229
1980355S10117 1981 111 SI WA EDNA 1980-12-21 21:00:00 TS -11.4499 113.745 main 307 307 ______P__P__P_ -1 -11.4499 113.745 20 25 1003 -11.4499 113.745 TC 25 1003 -11.4499 113.745 TC 25 1003 8 230
1980355S10117 1981 111 SI WA EDNA 1980-12-22 00:00:00 TS -11.7000 113.400 25 1003 bom main 349 349 ______O__O__O_ -1 -11.7000 113.400 20 25 1003 2.00000 -11.7000 113.400 TC 25 1003 -11.7000 113.400 TC 25 1003 9 243
1980355S10117 1981 111 SI WA EDNA 1980-12-22 03:00:00 TS -11.8449 112.960 main 368 368 ______P__P__P_ -1 -11.8449 112.960 20 25 1003 -11.8449 112.960 TC 25 1003 -11.8449 112.960 TC 25 1003 10 258
1980355S10117 1981 111 SI WA EDNA 1980-12-22 06:00:00 TS -11.9000 112.400 25 1003 bom main 393 392 ______O__O__O_ -1 -11.9000 112.400 20 25 1003 2.00000 -11.9000 112.400 TC 25 1003 -11.9000 112.400 TC 25 1003 12 269
1980355S10117 1981 111 SI WA EDNA 1980-12-22 09:00:00 TS -11.8728 111.692 main 392 382 ______P__P__P_ -1 -11.8728 111.692 20 25 1002 -11.8728 111.692 TC 25 1002 -11.8728 111.692 TC 25 1002 14 274
1980355S10117 1981 111 SI WA EDNA 1980-12-22 12:00:00 TS -11.8000 111.000 25 1002 bom main 388 386 ______O__O__O_ -1 -11.8000 111.000 20 25 1002 2.00000 -11.8000 111.000 TC 25 1002 -11.8000 111.000 TC 25 1002 11 277
1980355S10117 1981 111 SI WA EDNA 1980-12-22 15:00:00 TS -11.7421 110.528 main 388 388 ______P__P__P_ -1 -11.7421 110.528 20 25 1001 -11.7421 110.528 TC 27 1001 -11.7421 110.528 TC 25 1001 9 276
1980355S10117 1981 111 SI WA EDNA 1980-12-22 18:00:00 TS -11.7000 110.100 25 1001 bom main 397 397 ______O__O__O_ -1 -11.7000 110.100 20 25 1001 2.00000 -11.7000 110.100 TC 30 1001 -11.7000 110.100 TC 25 1001 9 273
1980355S10117 1981 111 SI WA EDNA 1980-12-22 21:00:00 TS -11.7000 109.565 main 410 410 ______P__P__P_ -1 -11.7000 109.565 20 25 1001 -11.7000 109.565 TC 30 1001 -11.7000 109.565 TC 25 1001 11 270
1980355S10117 1981 111 SI WA EDNA 1980-12-23 00:00:00 TS -11.7000 109.000 25 1001 bom main 434 434 ______O__O__O_ -1 -11.7000 109.000 20 25 1001 2.00000 -11.7000 109.000 TC 30 1001 -11.7000 109.000 TC 25 1001 11 272
1980355S10117 1981 111 SI WA EDNA 1980-12-23 03:00:00 TS -11.6574 108.442 main 436 425 ______P__P__P_ -1 -11.6574 108.442 20 25 1000 -11.6574 108.442 TC 30 1000 -11.6574 108.442 TC 27 1000 11 275
1980355S10117 1981 111 SI WA EDNA 1980-12-23 06:00:00 TS -11.6000 107.900 25 1000 bom main 429 429 ______O__O__O_ -1 -11.6000 107.900 20 25 1000 2.00000 -11.6000 107.900 TC 30 1000 -11.6000 107.900 TC 30 1000 10 276
1980355S10117 1981 111 SI WA EDNA 1980-12-23 09:00:00 TS -11.5574 107.393 main 439 429 ______P__P__P_ -1 -11.5574 107.393 20 27 999 -11.5574 107.393 TC 30 999 -11.5574 107.393 TC 30 999 10 276
1980355S10117 1981 111 SI WA EDNA 1980-12-23 12:00:00 TS -11.5000 106.900 30 999 bom main 436 434 ______O__O__O_ -1 -11.5000 106.900 20 30 999 2.00000 -11.5000 106.900 TC 30 999 -11.5000 106.900 TC 30 999 10 278
1980355S10117 1981 111 SI WA EDNA 1980-12-23 15:00:00 TS -11.4150 106.393 main 442 438 ______P__P__P_ -1 -11.4150 106.393 20 30 997 -11.4150 106.393 TC 32 997 -11.4150 106.393 TC 32 997 10 282
1980355S10117 1981 111 SI WA EDNA 1980-12-23 18:00:00 TS -11.3000 105.900 30 996 bom main 440 426 ______O__O__O_ -1 -11.3000 105.900 20 30 996 2.50000 -11.3000 105.900 TC 35 996 -11.3000 105.900 TC 35 996 10 287
1980355S10117 1981 111 SI WA EDNA 1980-12-23 21:00:00 TS -11.1349 105.442 main 428 424 ______P__P__P_ -1 -11.1349 105.442 20 32 995 -11.1349 105.442 TC 37 995 -11.1349 105.442 TC 37 995 9 289
1980355S10117 1981 111 SI WA EDNA 1980-12-24 00:00:00 TS -11.0000 105.000 35 994 bom main 431 431 ______O__O__O_ -1 -11.0000 105.000 30 35 994 2.50000 -11.0000 105.000 TC 40 994 -11.0000 105.000 TC 40 994 9 280
1980355S10117 1981 111 SI WA EDNA 1980-12-24 03:00:00 TS -10.9775 104.533 main 454 454 ______P__P__P_ -1 -10.9775 104.535 30 35 994 -10.9775 104.535 TC 40 994 -10.9775 104.528 TC 40 994 9 270
1980355S10117 1981 111 SI WA EDNA 1980-12-24 06:00:00 TS -11.0000 104.100 35 994 bom main 475 475 ______O__O__O_ -1 -11.0000 104.100 30 35 994 3.00000 -11.0000 104.100 TC 40 994 -11.0000 104.100 TC 40 994 7 269
1980355S10117 1981 111 SI WA EDNA 1980-12-24 09:00:00 TS -10.9923 103.777 main 494 494 ______P__P__P_ -1 -10.9923 103.757 30 35 994 -10.9923 103.757 TC 40 994 -10.9923 103.815 TC 40 994 7 270
1980355S10117 1981 111 SI WA EDNA 1980-12-24 12:00:00 TS -11.0000 103.433 35 994 bom main 510 510 ______O__O__O_ -1 -11.0000 103.400 30 35 994 3.00000 -11.0000 103.400 TC 40 994 -11.0000 103.500 TC 40 994 8 266
1980355S10117 1981 111 SI WA EDNA 1980-12-24 15:00:00 TS -11.0423 102.979 main 529 529 ______P__P__P_ -1 -11.0423 102.960 30 37 994 -11.0423 102.960 TC 40 994 -11.0424 103.017 TC 40 994 10 264
1980355S10117 1981 111 SI WA EDNA 1980-12-24 18:00:00 TS -11.1000 102.400 40 994 bom main 571 571 ______O__O__O_ -1 -11.1000 102.400 30 40 994 3.00000 -11.1000 102.400 TC 40 994 -11.1000 102.400 TC 40 994 13 265
1980355S10117 1981 111 SI WA EDNA 1980-12-24 21:00:00 TS -11.1502 101.663 main 625 625 ______P__P__P_ -1 -11.1502 101.665 30 40 994 -11.1502 101.665 TC 40 994 -11.1502 101.658 TC 40 994 15 266
1980355S10117 1981 111 SI WA EDNA 1980-12-25 00:00:00 TS -11.2000 100.900 40 994 bom main 682 682 ______O__O__O_ -1 -11.2000 100.900 30 40 994 3.00000 -11.2000 100.900 TC 40 994 -11.2000 100.900 TC 40 994 14 265
1980355S10117 1981 111 SI WA EDNA 1980-12-25 03:00:00 TS -11.2572 100.278 main 737 737 ______P__P__P_ -1 -11.2572 100.278 30 35 995 -11.2572 100.278 TC 37 995 -11.2572 100.278 TC 37 995 12 265
1980355S10117 1981 111 SI WA EDNA 1980-12-25 06:00:00 TS -11.3000 99.7000 30 997 bom main 786 786 ______O__O__O_ -1 -11.3000 99.7000 20 30 997 3.00000 -11.3000 99.7000 TC 35 997 -11.3000 99.7000 TC 35 997 12 268
1980355S10117 1981 111 SI WA EDNA 1980-12-25 09:00:00 TS -11.3073 99.1075 main 838 838 ______P__P__P_ -1 -11.3073 99.1075 20 30 998 -11.3073 99.1075 TC 32 998 -11.3073 99.1075 TC 32 998 12 270
1980355S10117 1981 111 SI WA EDNA 1980-12-25 12:00:00 TS -11.3000 98.5000 30 1000 bom main 892 892 ______O__O__O_ -1 -11.3000 98.5000 20 30 1000 2.50000 -11.3000 98.5000 TC 30 1000 -11.3000 98.5000 TC 30 1000 12 269
1980355S10117 1981 111 SI WA EDNA 1980-12-25 15:00:00 TS -11.3224 97.8576 main 940 940 ______P__P__P_ -1 -11.3224 97.8577 20 27 1001 -11.3224 97.8577 TC 27 1001 -11.3224 97.8577 TC 27 1001 13 270
1980355S10117 1981 111 SI WA EDNA 1980-12-25 18:00:00 TS -11.3000 97.2000 25 1003 bom main 987 987 ______O__O__O_ -1 -11.3000 97.2000 20 25 1003 2.50000 -11.3000 97.2000 TC 25 1003 -11.3000 97.2000 TC 25 1003 13 276
1980355S10117 1981 111 SI WA EDNA 1980-12-25 21:00:00 TS -11.1801 96.5049 main 1029 1027 ______P__P__P_ -1 -11.1801 96.5049 20 25 1004 -11.1801 96.5049 TC 22 1004 -11.1801 96.5049 TC 22 1004 13 283
1980355S10117 1981 111 SI WA EDNA 1980-12-26 00:00:00 TS -11.0000 95.9000 25 1005 bom main 1055 1054 ______O__O__O_ -1 -11.0000 95.9000 20 25 1005 2.00000 -11.0000 95.9000 TC 20 1005 -11.0000 95.9000 TC 20 1005 11 292
1980355S10117 1981 111 SI WA EDNA 1980-12-26 03:00:00 TS -10.7923 95.5051 main 1069 1069 ______P__P__P_ -1 -10.7923 95.5051 20 25 1005 -10.7923 95.5051 TC 17 1005 -10.7923 95.5051 TC 17 1005 8 300
1980355S10117 1981 111 SI WA EDNA 1980-12-26 06:00:00 TS -10.6000 95.2000 25 1006 bom main 1076 1070 ______O__O__O_ -1 -10.6000 95.2000 20 25 1006 2.00000 -10.6000 95.2000 TC 15 1006 -10.6000 95.2000 TC 15 1006 7 296
1980355S10117 1981 111 SI WA EDNA 1980-12-26 09:00:00 TS -10.4775 94.8501 main 1079 1079 ______P__P__P_ -1 -10.4775 94.8501 20 25 1006 -10.4775 94.8501 TC 15 1006 -10.4775 94.8501 TC 15 1006 7 286
1980355S10117 1981 111 SI WA EDNA 1980-12-26 12:00:00 TS -10.4000 94.5000 25 1006 bom main 1089 1089 ______O__O__O_ -1 -10.4000 94.5000 20 25 1006 1.50000 -10.4000 94.5000 TC 15 1006 -10.4000 94.5000 TC 15 1006 7 281
1980355S10117 1981 111 SI WA EDNA 1980-12-26 15:00:00 TS -10.3499 94.1576 main 1094 1094 ______P__P__P_ -1 -10.3499 94.1576 20 25 1006 -10.3499 94.1576 TC 15 1006 -10.3499 94.1576 TC 15 1006 7 278
1980355S10117 1981 111 SI WA EDNA 1980-12-26 18:00:00 TS -10.3000 93.8000 25 1007 bom main 1116 1116 ______O__O__O_ -1 -10.3000 93.8000 20 25 1007 1.50000 -10.3000 93.8000 TC 15 1007 -10.3000 93.8000 TC 15 1007 7 281
1980355S10117 1981 111 SI WA EDNA 1980-12-26 21:00:00 TS -10.2126 93.4099 main 1130 1130 ______P__P__P_ -1 -10.2126 93.4099 20 25 1007 -10.2126 93.4099 TC 15 1007 -10.2126 93.4099 TC 15 1007 8 284
1980355S10117 1981 111 SI WA EDNA 1980-12-27 00:00:00 TS -10.1000 93.0000 25 1007 bom main 1145 ______O__O__O_ -1 -10.1000 93.0000 20 25 1007 1.50000 -10.1000 93.0000 TC 15 1007 -10.1000 93.0000 TC 15 1007 8 286

About IBTrACS Database

This database is a web-friendly format of International Best Track Archive for Climate Stewardship (IBTrACS), a global best track data archive curated by NOAA dating back to 1842.

Updated: 2021-10-08